createdAt,value
2023-03-11T00:00:17.367Z,78.03
2023-03-11T00:02:45.809Z,168.38
2023-03-11T00:05:25.688Z,139.75
2023-03-11T00:07:53.610Z,129.00
2023-03-11T00:10:24.827Z,94.13
2023-03-11T00:12:52.425Z,43.30
2023-03-11T00:15:19.375Z,157.68
2023-03-11T00:17:48.537Z,72.80
2023-03-11T00:20:33.671Z,57.25
2023-03-11T00:23:01.064Z,148.57
2023-03-11T00:25:30.629Z,163.93
2023-03-11T00:27:58.153Z,234.63
2023-03-11T00:30:25.651Z,187.43
2023-03-11T00:32:54.764Z,143.90
2023-03-11T00:35:25.032Z,226.02
2023-03-11T00:37:55.532Z,186.82
2023-03-11T00:40:24.078Z,153.50
2023-03-11T00:42:51.205Z,159.02
2023-03-11T00:45:18.210Z,182.32
2023-03-11T00:47:45.755Z,126.85
2023-03-11T00:50:24.802Z,105.63
2023-03-11T00:52:52.573Z,157.05
2023-03-11T00:55:25.604Z,162.70
2023-03-11T00:57:58.573Z,67.75
2023-03-11T01:00:26.887Z,43.33
2023-03-11T01:02:55.208Z,40.13
2023-03-11T01:05:25.775Z,75.28
2023-03-11T01:07:52.662Z,35.72
2023-03-11T01:10:19.986Z,67.38
2023-03-11T01:12:46.816Z,29.42
2023-03-11T01:15:35.459Z,40.45
2023-03-11T01:18:03.553Z,33.42
2023-03-11T01:20:30.691Z,34.38
2023-03-11T01:22:57.574Z,26.98
2023-03-11T01:25:25.194Z,30.88
2023-03-11T01:27:52.157Z,30.02
2023-03-11T01:30:24.330Z,48.03
2023-03-11T01:32:53.504Z,30.10
2023-03-11T01:35:22.396Z,31.35
2023-03-11T01:37:49.422Z,31.33
2023-03-11T01:40:21.458Z,33.13
2023-03-11T01:42:48.635Z,31.45
2023-03-11T01:45:40.705Z,27.17
2023-03-11T01:48:09.828Z,27.50
2023-03-11T01:50:42.343Z,32.75
2023-03-11T01:53:10.032Z,28.83
2023-03-11T01:55:37.478Z,33.22
2023-03-11T01:58:07.709Z,28.05
2023-03-11T02:00:36.698Z,32.08
2023-03-11T02:03:10.363Z,37.22
2023-03-11T02:05:38.588Z,30.33
2023-03-11T02:08:07.082Z,31.20
2023-03-11T02:10:34.196Z,37.78
2023-03-11T02:13:03.106Z,36.75
2023-03-11T02:15:30.714Z,35.10
2023-03-11T02:17:59.085Z,38.50
2023-03-11T02:20:31.709Z,37.88
2023-03-11T02:23:01.214Z,31.13
2023-03-11T02:25:36.245Z,31.52
2023-03-11T02:28:07.263Z,31.00
2023-03-11T02:30:35.224Z,29.80
2023-03-11T02:33:02.642Z,33.47
2023-03-11T02:35:30.273Z,27.15
2023-03-11T02:37:57.510Z,32.20
2023-03-11T02:40:24.485Z,30.25
2023-03-11T02:42:56.489Z,30.98
2023-03-11T02:45:26.011Z,29.10
2023-03-11T02:47:54.877Z,24.48
2023-03-11T02:50:22.701Z,28.63
2023-03-11T02:52:50.510Z,28.73
2023-03-11T02:55:18.289Z,20.38
2023-03-11T02:57:45.266Z,26.25
2023-03-11T03:00:16.031Z,28.23
2023-03-11T03:02:44.803Z,22.17
2023-03-11T03:05:12.318Z,27.65
2023-03-11T03:07:39.420Z,21.60
2023-03-11T03:10:08.551Z,20.85
2023-03-11T03:12:35.280Z,21.85
2023-03-11T03:15:02.193Z,22.00
2023-03-11T03:17:29.197Z,20.23
2023-03-11T03:19:56.052Z,26.83
2023-03-11T03:22:25.873Z,24.92
2023-03-11T03:24:53.169Z,19.77
2023-03-11T03:27:20.148Z,23.58
2023-03-11T03:29:47.201Z,17.20
2023-03-11T03:32:14.170Z,28.20
2023-03-11T03:34:40.904Z,22.48
2023-03-11T03:37:07.877Z,25.35
2023-03-11T03:39:34.861Z,25.92
2023-03-11T03:42:01.652Z,20.05
2023-03-11T03:44:30.857Z,18.58
2023-03-11T03:46:57.811Z,15.15
2023-03-11T03:49:24.869Z,19.08
2023-03-11T03:51:51.816Z,17.77
2023-03-11T03:54:18.598Z,16.42
2023-03-11T03:56:45.408Z,18.25
2023-03-11T03:59:13.010Z,27.63
2023-03-11T04:01:39.656Z,22.00
2023-03-11T04:04:06.992Z,17.45
2023-03-11T04:06:34.529Z,21.75
2023-03-11T04:09:01.361Z,21.45
2023-03-11T04:11:28.506Z,19.30
2023-03-11T04:13:55.296Z,25.77
2023-03-11T04:16:24.719Z,20.75
2023-03-11T04:18:51.561Z,23.88
2023-03-11T04:21:20.022Z,26.75
2023-03-11T04:23:47.090Z,24.65
2023-03-11T04:26:14.491Z,18.90
2023-03-11T04:28:41.820Z,26.05
2023-03-11T04:31:08.990Z,20.52
2023-03-11T04:33:36.052Z,21.33
2023-03-11T04:36:07.553Z,27.73
2023-03-11T04:38:34.926Z,20.77
2023-03-11T04:41:07.114Z,19.08
2023-03-11T04:43:34.414Z,19.38
2023-03-11T04:46:01.393Z,17.58
2023-03-11T04:48:28.603Z,17.42
2023-03-11T04:50:55.914Z,14.68
2023-03-11T04:53:23.472Z,20.50
2023-03-11T04:55:50.776Z,20.65
2023-03-11T04:58:17.679Z,22.27
2023-03-11T05:00:44.570Z,19.85
2023-03-11T05:03:11.459Z,24.83
2023-03-11T05:05:38.525Z,24.02
2023-03-11T05:08:05.565Z,21.08
2023-03-11T05:10:32.797Z,20.60
2023-03-11T05:12:59.578Z,17.92
2023-03-11T05:15:26.414Z,19.50
2023-03-11T05:17:53.385Z,19.90
2023-03-11T05:20:20.262Z,17.83
2023-03-11T05:22:47.133Z,18.83
2023-03-11T05:25:14.232Z,18.52
2023-03-11T05:27:41.356Z,16.92
2023-03-11T05:30:08.876Z,17.98
2023-03-11T05:32:35.820Z,21.38
2023-03-11T05:35:02.692Z,21.50
2023-03-11T05:37:32.400Z,19.35
2023-03-11T05:39:59.276Z,17.48
2023-03-11T05:42:26.145Z,19.90
2023-03-11T05:44:53.119Z,30.00
2023-03-11T05:47:19.830Z,22.67
2023-03-11T05:49:50.675Z,21.42
2023-03-11T05:52:17.737Z,16.67
2023-03-11T05:54:44.810Z,22.38
2023-03-11T05:57:11.675Z,23.15
2023-03-11T05:59:38.713Z,19.77
2023-03-11T06:02:05.845Z,18.05
2023-03-11T06:04:32.950Z,15.40
2023-03-11T06:06:59.957Z,18.40
2023-03-11T06:09:28.578Z,17.63
2023-03-11T06:11:55.410Z,18.00
2023-03-11T06:14:22.277Z,17.00
2023-03-11T06:16:49.264Z,17.55
2023-03-11T06:19:16.055Z,17.95
2023-03-11T06:21:43.034Z,17.50
2023-03-11T06:24:09.913Z,15.95
2023-03-11T06:26:37.014Z,22.65
2023-03-11T06:29:03.811Z,14.32
2023-03-11T06:31:31.083Z,16.00
2023-03-11T06:33:59.001Z,17.45
2023-03-11T06:36:26.420Z,17.60
2023-03-11T06:38:53.877Z,17.95
2023-03-11T06:41:20.776Z,17.95
2023-03-11T06:43:47.692Z,14.18
2023-03-11T06:46:23.004Z,16.05
2023-03-11T06:48:53.072Z,17.35
2023-03-11T06:51:21.533Z,15.45
2023-03-11T06:53:50.733Z,14.45
2023-03-11T06:56:17.553Z,14.90
2023-03-11T06:58:44.916Z,17.83
2023-03-11T07:01:15.597Z,20.00
2023-03-11T07:03:43.517Z,17.00
2023-03-11T07:06:15.815Z,21.33
2023-03-11T07:08:42.652Z,14.95
2023-03-11T07:11:22.011Z,15.43
2023-03-11T07:13:49.096Z,14.23
2023-03-11T07:16:21.667Z,14.02
2023-03-11T07:18:50.052Z,13.88
2023-03-11T07:21:20.296Z,14.30
2023-03-11T07:23:49.455Z,17.30
2023-03-11T07:26:18.073Z,9.30
2023-03-11T07:28:45.369Z,10.70
2023-03-11T07:31:18.857Z,9.68
2023-03-11T07:33:46.379Z,12.10
2023-03-11T07:36:16.682Z,12.10
2023-03-11T07:38:44.461Z,14.55
2023-03-11T07:41:12.852Z,11.85
2023-03-11T07:43:41.708Z,9.30
2023-03-11T07:46:11.030Z,12.65
2023-03-11T07:48:39.769Z,12.10
2023-03-11T07:51:11.124Z,13.82
2023-03-11T07:53:38.165Z,10.80
2023-03-11T07:56:05.476Z,13.25
2023-03-11T07:58:32.351Z,12.00
2023-03-11T08:01:07.146Z,10.90
2023-03-11T08:03:35.592Z,11.18
2023-03-11T08:06:03.331Z,11.13
2023-03-11T08:08:30.509Z,12.10
2023-03-11T08:10:57.324Z,14.10
2023-03-11T08:13:24.303Z,6.72
2023-03-11T08:15:51.466Z,6.00
2023-03-11T08:18:18.462Z,7.50
2023-03-11T08:20:45.971Z,8.13
2023-03-11T08:23:13.473Z,11.43
2023-03-11T08:25:41.292Z,11.15
2023-03-11T08:28:09.382Z,9.52
2023-03-11T08:30:36.677Z,11.55
2023-03-11T08:33:03.960Z,5.47
2023-03-11T08:35:32.041Z,6.35
2023-03-11T08:37:59.375Z,6.82
2023-03-11T08:40:26.248Z,6.32
2023-03-11T08:42:55.344Z,7.03
2023-03-11T08:45:22.629Z,6.57
2023-03-11T08:47:49.669Z,4.90
2023-03-11T08:50:19.986Z,3.95
2023-03-11T08:52:46.944Z,4.80
2023-03-11T08:55:17.254Z,5.40
2023-03-11T08:57:44.571Z,3.88
2023-03-11T09:00:13.297Z,4.60
2023-03-11T09:02:41.841Z,3.58
2023-03-11T09:05:09.569Z,3.20
2023-03-11T09:07:36.871Z,4.45
2023-03-11T09:10:04.331Z,2.63
2023-03-11T09:12:31.343Z,3.35
2023-03-11T09:14:58.333Z,2.72
2023-03-11T09:17:25.775Z,3.60
2023-03-11T09:19:52.811Z,3.70
2023-03-11T09:22:19.727Z,5.50
2023-03-11T09:24:46.853Z,5.28
2023-03-11T09:27:15.618Z,4.47
2023-03-11T09:29:43.098Z,2.72
2023-03-11T09:32:14.818Z,5.07
2023-03-11T09:34:41.668Z,4.20
2023-03-11T09:37:08.949Z,4.82
2023-03-11T09:39:36.416Z,3.70
2023-03-11T09:42:20.093Z,5.22
2023-03-11T09:44:47.050Z,3.65
2023-03-11T09:47:32.506Z,3.75
2023-03-11T09:52:54.262Z,3.67
2023-03-11T09:55:40.207Z,3.40
2023-03-11T09:58:48.808Z,2.92
2023-03-11T10:01:21.186Z,3.33
2023-03-11T10:03:50.110Z,3.08
2023-03-11T10:06:30.537Z,3.15
2023-03-11T10:09:13.925Z,4.32
2023-03-11T10:12:05.618Z,3.45
2023-03-11T10:15:09.576Z,3.85
2023-03-11T10:17:45.268Z,4.90
2023-03-11T10:20:19.913Z,6.05
2023-03-11T10:22:46.890Z,2.83
2023-03-11T10:25:20.086Z,8.30
2023-03-11T10:27:52.128Z,4.70
2023-03-11T10:30:31.828Z,2.53
2023-03-11T10:33:05.302Z,3.28
2023-03-11T10:35:44.909Z,3.08
2023-03-11T10:38:48.473Z,3.58
2023-03-11T10:41:22.093Z,4.55
2023-03-11T10:43:54.818Z,3.10
2023-03-11T10:46:28.539Z,5.30
2023-03-11T10:48:55.644Z,4.50
2023-03-11T10:51:27.119Z,4.13
2023-03-11T10:53:59.315Z,3.92
2023-03-11T10:56:25.994Z,4.10
2023-03-11T10:58:52.953Z,3.55
2023-03-11T11:01:21.927Z,3.90
2023-03-11T11:03:55.883Z,4.43
2023-03-11T11:06:25.459Z,3.65
2023-03-11T11:09:31.240Z,3.10
2023-03-11T11:12:15.157Z,5.10
2023-03-11T11:14:53.434Z,3.88
2023-03-11T11:17:25.079Z,4.50
2023-03-11T11:19:53.580Z,5.07
2023-03-11T11:22:22.565Z,5.10
2023-03-11T11:24:53.572Z,6.30
2023-03-11T11:27:23.502Z,3.97
2023-03-11T11:30:09.110Z,2.97
2023-03-11T11:32:37.461Z,5.32
2023-03-11T11:35:08.331Z,4.70
2023-03-11T11:37:39.524Z,3.88
2023-03-11T11:40:31.083Z,3.40
2023-03-11T11:43:01.060Z,5.93
2023-03-11T11:45:49.313Z,5.57
2023-03-11T11:49:07.525Z,4.63
2023-03-11T11:52:05.618Z,3.95
2023-03-11T11:54:54.590Z,7.63
2023-03-11T11:57:24.119Z,5.72
2023-03-11T11:59:51.507Z,4.28
2023-03-11T12:02:21.487Z,3.13
2023-03-11T12:04:56.973Z,5.25
2023-03-11T12:07:49.928Z,4.95
2023-03-11T12:10:23.727Z,3.30
2023-03-11T12:12:58.866Z,5.60
2023-03-11T12:15:44.450Z,6.65
2023-03-11T12:18:23.811Z,3.33
2023-03-11T12:20:58.281Z,5.10
2023-03-11T12:23:31.419Z,2.10
2023-03-11T12:26:17.068Z,3.83
2023-03-11T12:29:19.885Z,7.50
2023-03-11T12:31:47.925Z,4.07
2023-03-11T12:34:19.813Z,4.00
2023-03-11T12:36:48.867Z,4.25
2023-03-11T12:39:24.068Z,3.63
2023-03-11T12:42:11.258Z,2.70
2023-03-11T12:44:39.642Z,2.22
2023-03-11T12:47:10.623Z,3.85
2023-03-11T12:49:43.632Z,5.10
2023-03-11T12:52:13.691Z,2.90
2023-03-11T12:54:45.415Z,3.20
2023-03-11T12:57:21.013Z,4.32
2023-03-11T12:59:50.941Z,3.10
2023-03-11T13:02:42.581Z,3.63
2023-03-11T13:05:23.190Z,3.10
2023-03-11T13:07:57.383Z,4.07
2023-03-11T13:10:44.287Z,5.93
2023-03-11T13:13:36.548Z,2.83
2023-03-11T13:16:12.692Z,2.55
2023-03-11T13:18:42.539Z,11.63
2023-03-11T13:21:27.804Z,3.63
2023-03-11T13:24:19.488Z,2.65
2023-03-11T13:27:04.973Z,3.78
2023-03-11T13:32:14.843Z,3.08
2023-03-11T13:35:30.243Z,4.72
2023-03-11T13:38:17.507Z,2.85
2023-03-11T13:40:46.752Z,4.32
2023-03-11T13:43:21.300Z,4.30
2023-03-11T13:45:56.838Z,1.55
2023-03-11T13:48:45.216Z,4.45
2023-03-11T13:51:45.006Z,3.47
2023-03-11T13:54:20.309Z,3.25
2023-03-11T13:56:54.174Z,6.10
2023-03-11T13:59:21.023Z,4.57
2023-03-11T14:01:57.623Z,3.72
2023-03-11T14:04:36.245Z,2.67
2023-03-11T14:07:14.590Z,3.08
2023-03-11T14:09:41.457Z,10.57
2023-03-11T14:12:09.663Z,2.47
2023-03-11T14:15:04.411Z,6.32
2023-03-11T14:17:31.358Z,3.35
2023-03-11T14:20:07.320Z,4.57
2023-03-11T14:22:34.960Z,6.28
2023-03-11T14:25:08.176Z,2.90
2023-03-11T14:27:36.041Z,2.38
2023-03-11T14:30:03.356Z,4.55
2023-03-11T14:32:33.346Z,4.88
2023-03-11T14:35:01.230Z,4.95
2023-03-11T14:37:36.660Z,2.95
2023-03-11T14:40:21.802Z,6.60
2023-03-11T14:42:53.912Z,1.88
2023-03-11T14:45:25.037Z,3.35
2023-03-11T14:47:52.002Z,3.50
2023-03-11T14:50:24.459Z,3.22
2023-03-11T14:53:01.924Z,2.72
2023-03-11T14:55:40.548Z,2.55
2023-03-11T14:58:24.143Z,2.17
2023-03-11T15:01:13.420Z,3.78
2023-03-11T15:03:47.629Z,5.18
2023-03-11T15:06:17.640Z,1.42
2023-03-11T15:08:48.136Z,3.28
2023-03-11T15:11:15.280Z,1.75
2023-03-11T15:13:47.451Z,4.00
2023-03-11T15:16:30.159Z,5.50
2023-03-11T15:18:57.341Z,4.50
2023-03-11T15:21:25.182Z,5.78
2023-03-11T15:24:21.073Z,2.47
2023-03-11T15:29:28.073Z,4.72
2023-03-11T15:31:55.040Z,1.67
2023-03-11T15:34:25.592Z,3.13
2023-03-11T15:36:53.096Z,1.42
2023-03-11T15:39:33.051Z,2.63
2023-03-11T15:42:00.604Z,2.60
2023-03-11T15:44:41.048Z,3.42
2023-03-11T15:47:17.271Z,5.43
2023-03-11T15:49:44.447Z,2.97
2023-03-11T15:52:11.942Z,7.32
2023-03-11T15:54:39.080Z,2.22
2023-03-11T15:57:11.731Z,2.53
2023-03-11T15:59:41.468Z,2.67
2023-03-11T16:02:24.041Z,2.63
2023-03-11T16:04:51.504Z,1.85
2023-03-11T16:07:29.480Z,2.22
2023-03-11T16:10:06.070Z,3.47
2023-03-11T16:12:32.944Z,2.50
2023-03-11T16:15:00.025Z,2.58
2023-03-11T16:17:34.092Z,2.05
2023-03-11T16:20:07.136Z,3.85
2023-03-11T16:22:37.108Z,2.90
2023-03-11T16:25:07.419Z,1.98
2023-03-11T16:27:34.667Z,2.80
2023-03-11T16:30:01.809Z,2.75
2023-03-11T16:32:28.783Z,2.53
2023-03-11T16:34:55.708Z,4.72
2023-03-11T16:37:22.683Z,5.05
2023-03-11T16:39:49.527Z,3.60
2023-03-11T16:42:24.120Z,3.10
2023-03-11T16:44:51.470Z,2.92
2023-03-11T16:47:18.320Z,3.20
2023-03-11T16:49:45.161Z,4.15
2023-03-11T16:52:12.148Z,2.75
2023-03-11T16:54:39.039Z,4.82
2023-03-11T16:57:05.965Z,4.43
2023-03-11T16:59:32.703Z,7.30
2023-03-11T17:01:59.778Z,10.57
2023-03-11T17:04:26.589Z,9.73
2023-03-11T17:06:53.612Z,5.45
2023-03-11T17:09:23.592Z,6.90
2023-03-11T17:11:51.765Z,4.47
2023-03-11T17:14:18.697Z,4.80
2023-03-11T17:16:45.645Z,9.10
2023-03-11T17:19:13.531Z,2.78
2023-03-11T17:21:40.312Z,8.75
2023-03-11T17:24:07.554Z,7.28
2023-03-11T17:26:34.534Z,13.15
2023-03-11T17:29:01.465Z,5.30
2023-03-11T17:31:28.650Z,12.98
2023-03-11T17:33:56.199Z,9.65
2023-03-11T17:36:23.042Z,10.30
2023-03-11T17:38:52.645Z,11.88
2023-03-11T17:41:22.074Z,6.75
2023-03-11T17:43:51.413Z,7.35
2023-03-11T17:46:19.755Z,9.13
2023-03-11T17:48:48.607Z,7.28
2023-03-11T17:51:18.596Z,6.35
2023-03-11T17:53:47.421Z,8.18
2023-03-11T17:56:16.766Z,8.25
2023-03-11T17:58:44.195Z,9.20
2023-03-11T18:01:19.934Z,6.43
2023-03-11T18:03:46.915Z,10.70
2023-03-11T18:06:15.916Z,6.28
2023-03-11T18:08:42.832Z,10.57
2023-03-11T18:11:13.156Z,5.30
2023-03-11T18:13:40.946Z,5.80
2023-03-11T18:16:17.107Z,3.80
2023-03-11T18:18:44.964Z,9.25
2023-03-11T18:21:15.173Z,4.70
2023-03-11T18:23:42.754Z,7.05
2023-03-11T18:26:12.497Z,7.88
2023-03-11T18:28:40.123Z,15.82
2023-03-11T18:31:15.743Z,7.90
2023-03-11T18:33:46.694Z,12.00
2023-03-11T18:36:19.221Z,11.93
2023-03-11T18:38:47.791Z,7.75
2023-03-11T18:41:15.558Z,11.05
2023-03-11T18:43:43.231Z,12.02
2023-03-11T18:46:13.500Z,12.60
2023-03-11T18:48:40.875Z,12.10
2023-03-11T18:51:09.155Z,12.02
2023-03-11T18:53:36.453Z,14.73
2023-03-11T18:56:06.867Z,8.45
2023-03-11T18:58:34.328Z,11.00
2023-03-11T19:01:05.263Z,9.63
2023-03-11T19:03:31.982Z,8.93
2023-03-11T19:05:59.774Z,8.80
2023-03-11T19:08:27.282Z,6.50
2023-03-11T19:10:54.380Z,9.88
2023-03-11T19:13:21.567Z,8.25
2023-03-11T19:15:48.614Z,6.85
2023-03-11T19:18:16.069Z,6.13
2023-03-11T19:20:43.437Z,5.00
2023-03-11T19:23:11.499Z,8.93
2023-03-11T19:25:38.379Z,8.38
2023-03-11T19:28:05.318Z,6.88
2023-03-11T19:30:32.891Z,10.40
2023-03-11T19:32:59.733Z,7.22
2023-03-11T19:35:27.043Z,9.23
2023-03-11T19:37:57.301Z,7.95
2023-03-11T19:40:24.603Z,7.53
2023-03-11T19:42:51.902Z,7.05
2023-03-11T19:45:18.933Z,5.72
2023-03-11T19:47:50.307Z,7.38
2023-03-11T19:50:20.323Z,11.68
2023-03-11T19:52:47.290Z,5.70
2023-03-11T19:55:14.823Z,6.28
2023-03-11T19:57:41.828Z,2.53
2023-03-11T20:00:10.536Z,1.75
2023-03-11T20:02:37.386Z,6.38
2023-03-11T20:05:04.760Z,3.83
2023-03-11T20:07:31.785Z,4.13
2023-03-11T20:09:58.938Z,2.45
2023-03-11T20:12:25.560Z,3.70
2023-03-11T20:14:52.425Z,3.42
2023-03-11T20:17:19.339Z,4.32
2023-03-11T20:19:46.352Z,2.90
2023-03-11T20:22:13.420Z,4.85
2023-03-11T20:24:40.343Z,5.95
2023-03-11T20:27:08.274Z,3.38
2023-03-11T20:29:35.222Z,6.63
2023-03-11T20:32:04.139Z,4.88
2023-03-11T20:34:31.127Z,7.97
2023-03-11T20:36:58.198Z,6.50
2023-03-11T20:39:25.074Z,4.97
2023-03-11T20:41:53.254Z,4.25
2023-03-11T20:44:20.127Z,3.50
2023-03-11T20:46:47.444Z,6.55
2023-03-11T20:49:14.715Z,5.32
2023-03-11T20:51:44.069Z,5.82
2023-03-11T20:54:12.294Z,5.57
2023-03-11T20:56:39.308Z,6.65
2023-03-11T20:59:07.587Z,4.65
2023-03-11T21:01:35.762Z,7.72
2023-03-11T21:04:04.522Z,4.68
2023-03-11T21:06:37.168Z,9.60
2023-03-11T21:09:07.180Z,5.85
2023-03-11T21:11:34.771Z,5.18
2023-03-11T21:14:02.330Z,5.28
2023-03-11T21:16:29.517Z,7.07
2023-03-11T21:18:56.611Z,6.90
2023-03-11T21:21:24.206Z,4.22
2023-03-11T21:23:51.338Z,5.78
2023-03-11T21:26:18.734Z,7.95
2023-03-11T21:28:47.132Z,6.32
2023-03-11T21:31:19.569Z,7.38
2023-03-11T21:33:47.703Z,8.75
2023-03-11T21:36:16.581Z,6.75
2023-03-11T21:38:43.922Z,5.45
2023-03-11T21:41:15.264Z,10.20
2023-03-11T21:43:43.555Z,11.95
2023-03-11T21:46:13.976Z,16.98
2023-03-11T21:48:41.053Z,14.40
2023-03-11T21:51:08.504Z,10.13
2023-03-11T21:53:35.943Z,7.32
2023-03-11T21:56:04.030Z,6.75
2023-03-11T21:58:32.095Z,13.45
2023-03-11T22:00:59.744Z,7.65
2023-03-11T22:03:27.520Z,11.27
2023-03-11T22:05:59.446Z,7.68
2023-03-11T22:08:27.326Z,7.13
2023-03-11T22:10:54.881Z,8.95
2023-03-11T22:13:22.587Z,8.07
2023-03-11T22:15:49.741Z,7.00
2023-03-11T22:18:16.823Z,5.90
2023-03-11T22:20:44.367Z,9.38
2023-03-11T22:23:11.619Z,8.27
2023-03-11T22:25:38.489Z,7.38
2023-03-11T22:28:05.555Z,8.63
2023-03-11T22:30:32.477Z,6.00
2023-03-11T22:32:59.280Z,9.15
2023-03-11T22:35:26.438Z,6.38
2023-03-11T22:37:53.446Z,7.05
2023-03-11T22:40:20.589Z,8.90
2023-03-11T22:42:47.513Z,4.95
2023-03-11T22:45:14.473Z,6.38
2023-03-11T22:47:41.359Z,7.50
2023-03-11T22:50:09.184Z,5.82
2023-03-11T22:52:36.018Z,9.73
2023-03-11T22:55:02.901Z,5.78
2023-03-11T22:57:29.959Z,7.35
2023-03-11T22:59:56.721Z,9.30
2023-03-11T23:02:23.793Z,5.05
2023-03-11T23:04:50.856Z,7.68
2023-03-11T23:07:17.807Z,5.13
2023-03-11T23:09:44.999Z,4.22
2023-03-11T23:12:11.682Z,5.13
2023-03-11T23:14:44.969Z,4.53
2023-03-11T23:17:12.602Z,9.13
2023-03-11T23:19:39.722Z,4.57
2023-03-11T23:22:08.794Z,9.45
2023-03-11T23:24:35.629Z,7.93
2023-03-11T23:27:05.028Z,3.30
2023-03-11T23:29:32.533Z,7.55
2023-03-11T23:31:59.405Z,8.05
2023-03-11T23:34:26.460Z,4.93
2023-03-11T23:36:53.481Z,7.25
2023-03-11T23:39:20.380Z,9.05
2023-03-11T23:41:47.103Z,6.03
2023-03-11T23:44:14.676Z,6.50
2023-03-11T23:46:41.499Z,5.50
2023-03-11T23:49:08.480Z,6.20
2023-03-11T23:51:35.616Z,5.20
2023-03-11T23:54:02.401Z,4.93
2023-03-11T23:56:29.296Z,3.85
2023-03-11T23:58:56.188Z,7.32
